Buckeye, Iowa
Current Conditions -  °F | °C
As of 6:55 AM on Saturday 22 Nov 2014 (Local Time) from KIFA Reporting Station
Light Snow Light Snow  
Wind Chill: 28°   Ceiling: 400
Heat Index: 34°   Visibility: 0.5mi
Dew Point: 33°   Wind: 8mph
Humidity: 95%   Direction: 180°S
Pressure: 29.88"   Gusts: NA
Location:  42.42°N, 93.37°W
Report Text: KIFA 221255Z AUTO 18007KT 1/2SM -SN OVC004 01/01 A2988 RMK AO2 T00130006
Loading
Personal Weather Stations






























Interactive Weather Map New forecast layout! Learn more

10-Day Weather Forecast

Advertisements
Track Severe Weather on mobile